Time;durP1;ratioP1;P1;durP2;ratioP2;P2;SDS_P1;SDS_P2;PMS_P1;PMS_P2;Temp;Humidity;BMP_temperature;BMP_pressure;BME280_temperature;BME280_humidity;BME280_pressure;Samples;Min_cycle;Max_cycle;Signal;HPM_P1;HPM_P2
2022/04/25 00:01:34;;;;;;;3.30;1.75;;;;;;;;;;4952459;29;20035;-75
2022/04/25 00:03:59;;;;;;;2.97;1.77;;;;;;;;;;4936395;29;20067;-75
2022/04/25 00:06:25;;;;;;;5.35;1.75;;;;;;;;;;4953984;29;20031;-76
2022/04/25 00:08:50;;;;;;;3.78;1.95;;;;;;;;;;4953682;29;20100;-74
2022/04/25 00:11:16;;;;;;;4.28;1.80;;;;;;;;;;4936437;29;20058;-73
2022/04/25 00:13:41;;;;;;;2.05;1.80;;;;;;;;;;4936697;29;20059;-74
2022/04/25 00:16:06;;;;;;;2.55;1.85;;;;;;;;;;4936366;29;20390;-74
2022/04/25 00:18:32;;;;;;;4.13;2.30;;;;;;;;;;4953559;29;20054;-74
2022/04/25 00:20:57;;;;;;;6.05;1.90;;;;;;;;;;4936244;29;20054;-74
2022/04/25 00:23:23;;;;;;;4.97;1.73;;;;;;;;;;4953682;29;20335;-74
2022/04/25 00:25:49;;;;;;;1.98;1.77;;;;;;;;;;4953536;29;20039;-74
2022/04/25 00:28:15;;;;;;;2.80;2.10;;;;;;;;;;4936127;29;20027;-74
2022/04/25 00:30:40;;;;;;;2.30;2.05;;;;;;;;;;4936025;29;20039;-74
2022/04/25 00:33:05;;;;;;;2.03;1.83;;;;;;;;;;4936171;29;20035;-76
2022/04/25 00:35:31;;;;;;;2.20;1.80;;;;;;;;;;4936240;29;20118;-75
2022/04/25 00:37:56;;;;;;;2.53;1.95;;;;;;;;;;4953663;29;20028;-75
2022/04/25 00:40:23;;;;;;;3.45;2.30;;;;;;;;;;4953480;29;20031;-76
2022/04/25 00:42:49;;;;;;;2.38;1.90;;;;;;;;;;4936160;29;20027;-75
2022/04/25 00:45:15;;;;;;;2.55;1.70;;;;;;;;;;4936381;29;20034;-75
2022/04/25 00:47:42;;;;;;;2.97;1.90;;;;;;;;;;4953712;29;20065;-75
2022/04/25 00:50:08;;;;;;;2.03;1.83;;;;;;;;;;4920400;29;20474;-74
2022/04/25 00:52:34;;;;;;;3.90;2.10;;;;;;;;;;4936413;29;20051;-74
2022/04/25 00:55:02;;;;;;;2.72;1.85;;;;;;;;;;4955159;28;20027;-74
2022/04/25 00:57:27;;;;;;;2.33;1.80;;;;;;;;;;4939657;29;20114;-73
2022/04/25 00:59:54;;;;;;;3.15;2.08;;;;;;;;;;4939541;29;20558;-73
2022/04/25 01:02:19;;;;;;;2.20;1.70;;;;;;;;;;4939484;29;20034;-74
2022/04/25 01:04:44;;;;;;;2.92;2.03;;;;;;;;;;4955289;29;20039;-74
2022/04/25 01:07:10;;;;;;;2.05;1.80;;;;;;;;;;4956886;29;20039;-75
2022/04/25 01:09:36;;;;;;;3.00;1.80;;;;;;;;;;4939483;29;20027;-74
2022/04/25 01:12:02;;;;;;;2.40;1.95;;;;;;;;;;4939235;29;20127;-76
2022/04/25 01:14:28;;;;;;;2.75;1.90;;;;;;;;;;4956585;29;20027;-74
2022/04/25 01:16:54;;;;;;;3.50;2.03;;;;;;;;;;4956536;29;20149;-75
2022/04/25 01:19:19;;;;;;;2.65;2.05;;;;;;;;;;4939327;29;20027;-75
2022/04/25 01:21:53;;;;;;;2.38;1.90;;;;;;;;;;4939100;29;20027;-76
2022/04/25 01:27:15;;;;;;;2.40;1.95;;;;;;;;;;4941541;29;20114;-75
2022/04/25 01:29:41;;;;;;;2.92;2.20;;;;;;;;;;4924230;29;20447;-75
2022/04/25 01:32:07;;;;;;;5.00;2.33;;;;;;;;;;4956183;29;20058;-75
2022/04/25 01:34:33;;;;;;;4.28;2.15;;;;;;;;;;4956028;29;20031;-75
2022/04/25 01:36:59;;;;;;;2.92;2.00;;;;;;;;;;4938814;29;20023;-75
2022/04/25 01:39:24;;;;;;;2.00;1.85;;;;;;;;;;4955978;29;20478;-75
2022/04/25 01:41:50;;;;;;;3.22;2.40;;;;;;;;;;4956149;29;20035;-75
2022/04/25 01:44:15;;;;;;;2.45;2.20;;;;;;;;;;4939011;29;20058;-75
2022/04/25 01:46:40;;;;;;;4.57;2.17;;;;;;;;;;4938540;29;20063;-74
2022/04/25 01:49:06;;;;;;;3.38;1.98;;;;;;;;;;4938543;29;20118;-74
2022/04/25 01:51:32;;;;;;;3.38;2.13;;;;;;;;;;4955667;29;20041;-74
2022/04/25 01:53:57;;;;;;;6.40;2.33;;;;;;;;;;4938652;29;20111;-74
2022/04/25 01:56:22;;;;;;;3.63;2.00;;;;;;;;;;4938610;29;20110;-74
2022/04/25 01:58:48;;;;;;;3.78;2.30;;;;;;;;;;4954309;29;20038;-74
2022/04/25 02:01:13;;;;;;;2.83;1.95;;;;;;;;;;4954303;29;20027;-74
2022/04/25 02:03:40;;;;;;;3.63;2.22;;;;;;;;;;4954379;29;20387;-76
2022/04/25 02:06:05;;;;;;;2.15;1.83;;;;;;;;;;4938024;29;20094;-74
2022/04/25 02:08:31;;;;;;;3.40;2.40;;;;;;;;;;4938436;29;20034;-75
2022/04/25 02:13:40;;;;;;;3.00;2.08;;;;;;;;;;4941132;29;20039;-75
2022/04/25 02:16:05;;;;;;;3.75;2.20;;;;;;;;;;4955363;29;20039;-74
2022/04/25 02:18:31;;;;;;;4.05;2.40;;;;;;;;;;4955293;29;20042;-74
2022/04/25 02:20:56;;;;;;;5.20;2.17;;;;;;;;;;4955294;28;20027;-74
2022/04/25 02:23:22;;;;;;;3.95;2.08;;;;;;;;;;4955341;29;20043;-74
2022/04/25 02:25:47;;;;;;;3.15;2.22;;;;;;;;;;4955119;29;20039;-74
2022/04/25 02:28:12;;;;;;;5.65;1.92;;;;;;;;;;4955069;29;20042;-75
2022/04/25 02:30:38;;;;;;;3.08;2.20;;;;;;;;;;4921912;29;20035;-75
2022/04/25 02:33:03;;;;;;;4.78;2.15;;;;;;;;;;4955033;29;20434;-74
2022/04/25 02:35:28;;;;;;;2.90;2.00;;;;;;;;;;4955148;29;20050;-75
2022/04/25 02:37:54;;;;;;;2.85;2.08;;;;;;;;;;4955050;29;20027;-75
2022/04/25 02:40:19;;;;;;;3.85;2.28;;;;;;;;;;4937937;29;20423;-74
2022/04/25 02:42:44;;;;;;;3.97;2.10;;;;;;;;;;4954881;29;20031;-74
2022/04/25 02:45:11;;;;;;;2.28;1.98;;;;;;;;;;4937865;29;20090;-75
2022/04/25 02:47:36;;;;;;;5.80;2.30;;;;;;;;;;4954680;29;20055;-74
2022/04/25 02:50:02;;;;;;;2.35;1.83;;;;;;;;;;4937758;29;20079;-76
2022/04/25 02:52:28;;;;;;;6.07;2.50;;;;;;;;;;4937549;29;20039;-75
2022/04/25 02:54:53;;;;;;;3.53;2.00;;;;;;;;;;4954828;29;20031;-74
2022/04/25 02:57:19;;;;;;;3.20;2.30;;;;;;;;;;4954658;29;20039;-75
2022/04/25 02:59:45;;;;;;;3.22;2.20;;;;;;;;;;4954727;29;20038;-74
2022/04/25 03:02:10;;;;;;;4.47;2.45;;;;;;;;;;4954668;29;20027;-75
2022/04/25 03:04:36;;;;;;;3.17;2.28;;;;;;;;;;4937448;29;20030;-75
2022/04/25 03:07:02;;;;;;;3.17;2.22;;;;;;;;;;4937392;29;20058;-75
2022/04/25 03:09:28;;;;;;;5.60;2.22;;;;;;;;;;4937283;29;20027;-75
2022/04/25 03:11:53;;;;;;;4.50;2.50;;;;;;;;;;4954420;29;20034;-75
2022/04/25 03:14:19;;;;;;;2.70;2.08;;;;;;;;;;4954456;29;20035;-75
2022/04/25 03:16:44;;;;;;;2.55;2.10;;;;;;;;;;4953985;28;20347;-75
2022/04/25 03:19:09;;;;;;;2.60;2.20;;;;;;;;;;4937050;29;20106;-74
2022/04/25 03:21:35;;;;;;;3.13;2.30;;;;;;;;;;4936984;29;20077;-75
2022/04/25 03:24:02;;;;;;;4.38;2.30;;;;;;;;;;4952863;29;20163;-74
2022/04/25 03:26:28;;;;;;;4.85;2.42;;;;;;;;;;4937454;29;20031;-75
2022/04/25 03:28:53;;;;;;;2.78;2.20;;;;;;;;;;4936787;29;20062;-75
2022/04/25 03:31:19;;;;;;;4.25;2.40;;;;;;;;;;4921195;29;20036;-74
2022/04/25 03:33:44;;;;;;;3.55;2.30;;;;;;;;;;4936875;29;20031;-75
2022/04/25 03:36:10;;;;;;;2.42;2.15;;;;;;;;;;4954187;29;20106;-74
2022/04/25 03:38:35;;;;;;;4.07;2.40;;;;;;;;;;4936983;29;20031;-74
2022/04/25 03:41:01;;;;;;;2.95;2.03;;;;;;;;;;4921014;29;20062;-75
2022/04/25 03:43:27;;;;;;;3.38;2.50;;;;;;;;;;4953904;29;20106;-75
2022/04/25 03:45:52;;;;;;;4.00;2.38;;;;;;;;;;4954108;29;20071;-75
2022/04/25 03:48:18;;;;;;;4.97;2.67;;;;;;;;;;4936415;29;20055;-75
2022/04/25 03:50:43;;;;;;;3.20;2.15;;;;;;;;;;4936619;29;20474;-75
2022/04/25 03:53:10;;;;;;;3.63;2.63;;;;;;;;;;4953966;29;20053;-74
2022/04/25 03:58:20;;;;;;;3.25;2.40;;;;;;;;;;4939111;29;20038;-74
2022/04/25 04:00:46;;;;;;;3.75;2.42;;;;;;;;;;4953681;29;20044;-75
2022/04/25 04:03:14;;;;;;;9.38;2.80;;;;;;;;;;4936407;29;20039;-75
2022/04/25 04:05:41;;;;;;;4.85;2.67;;;;;;;;;;4952435;29;20126;-75
2022/04/25 04:08:07;;;;;;;3.60;2.50;;;;;;;;;;4937034;29;20130;-75
2022/04/25 04:10:32;;;;;;;4.03;2.80;;;;;;;;;;4952580;29;20035;-75
2022/04/25 04:12:59;;;;;;;3.90;2.80;;;;;;;;;;4936511;29;20042;-75
2022/04/25 04:15:25;;;;;;;5.10;2.50;;;;;;;;;;4953433;29;20038;-76
2022/04/25 04:17:50;;;;;;;3.72;2.90;;;;;;;;;;4953563;29;20031;-75
2022/04/25 04:20:16;;;;;;;6.57;2.80;;;;;;;;;;4953316;28;20038;-74
2022/04/25 04:22:41;;;;;;;6.50;2.78;;;;;;;;;;4936085;29;20043;-74
2022/04/25 04:25:13;;;;;;;13.07;4.40;;;;;;;;;;4936242;29;20034;-75
2022/04/25 04:27:42;;;;;;;11.48;3.67;;;;;;;;;;4936435;29;20054;-74
2022/04/25 04:30:10;;;;;;;8.48;3.78;;;;;;;;;;4939760;29;20110;-74
2022/04/25 04:32:38;;;;;;;9.18;3.80;;;;;;;;;;4957138;29;20054;-74
2022/04/25 04:35:06;;;;;;;14.45;4.53;;;;;;;;;;4940616;29;20031;-74
2022/04/25 04:37:33;;;;;;;12.70;4.47;;;;;;;;;;4940428;29;20454;-74
2022/04/25 04:42:43;;;;;;;10.82;3.97;;;;;;;;;;4943195;29;20038;-74
2022/04/25 04:45:11;;;;;;;12.15;4.15;;;;;;;;;;4940326;29;20035;-73
2022/04/25 04:47:38;;;;;;;15.35;5.75;;;;;;;;;;4957242;29;20043;-74
2022/04/25 04:50:04;;;;;;;12.30;4.45;;;;;;;;;;4939880;29;20046;-74
2022/04/25 04:52:30;;;;;;;10.82;4.20;;;;;;;;;;4957252;29;20038;-74
2022/04/25 04:54:55;;;;;;;13.90;4.78;;;;;;;;;;4957177;29;20031;-74
2022/04/25 04:57:20;;;;;;;9.88;4.57;;;;;;;;;;4957123;29;20039;-74
2022/04/25 04:59:46;;;;;;;11.52;5.43;;;;;;;;;;4956959;29;20027;-75
2022/04/25 05:02:11;;;;;;;18.33;6.85;;;;;;;;;;4955670;29;20083;-74
2022/04/25 05:04:38;;;;;;;29.92;8.43;;;;;;;;;;4939757;29;20023;-75
2022/04/25 05:07:04;;;;;;;25.88;7.78;;;;;;;;;;4957109;29;20035;-77
2022/04/25 05:09:30;;;;;;;30.67;7.22;;;;;;;;;;4956831;29;20114;-75
2022/04/25 05:11:55;;;;;;;18.02;6.88;;;;;;;;;;4956518;29;20130;-76
2022/04/25 05:14:21;;;;;;;22.90;6.70;;;;;;;;;;4923139;29;20057;-74
2022/04/25 05:16:46;;;;;;;17.90;6.45;;;;;;;;;;4938735;29;20043;-74
2022/04/25 05:19:11;;;;;;;19.25;6.40;;;;;;;;;;4956103;29;20107;-74
2022/04/25 05:21:38;;;;;;;17.48;6.03;;;;;;;;;;4938644;29;20059;-75
2022/04/25 05:24:04;;;;;;;18.60;6.80;;;;;;;;;;4956183;29;20449;-74
2022/04/25 05:26:29;;;;;;;17.13;6.43;;;;;;;;;;4955933;29;20039;-75
2022/04/25 05:28:54;;;;;;;25.30;6.65;;;;;;;;;;4956247;29;20027;-74
2022/04/25 05:31:20;;;;;;;25.25;6.05;;;;;;;;;;4956077;29;20166;-74
2022/04/25 05:33:45;;;;;;;18.63;6.22;;;;;;;;;;4956064;29;20402;-74
2022/04/25 05:36:10;;;;;;;16.15;5.70;;;;;;;;;;4938431;29;20066;-75
2022/04/25 05:38:37;;;;;;;13.73;6.20;;;;;;;;;;4955833;29;20041;-74
2022/04/25 05:41:03;;;;;;;12.45;5.00;;;;;;;;;;4955143;28;20110;-75
2022/04/25 05:43:28;;;;;;;11.45;5.03;;;;;;;;;;4938432;29;20122;-74
2022/04/25 05:45:54;;;;;;;10.88;5.07;;;;;;;;;;4955932;29;20035;-75
2022/04/25 05:53:48;;;;;;;12.18;5.05;;;;;;;;;;4941611;29;20046;-75
2022/04/25 05:56:13;;;;;;;13.55;5.18;;;;;;;;;;4938569;29;20032;-75
2022/04/25 05:58:38;;;;;;;13.32;5.13;;;;;;;;;;4954507;29;20346;-76
2022/04/25 06:01:04;;;;;;;12.55;5.03;;;;;;;;;;4938462;29;20054;-76
2022/04/25 06:03:29;;;;;;;14.05;5.38;;;;;;;;;;4954365;29;20035;-76
2022/04/25 06:05:55;;;;;;;8.48;4.50;;;;;;;;;;4955587;29;20393;-74
2022/04/25 06:08:20;;;;;;;10.70;5.00;;;;;;;;;;4954148;29;20036;-74
2022/04/25 06:10:46;;;;;;;11.13;4.32;;;;;;;;;;4954200;29;20122;-75
2022/04/25 06:13:13;;;;;;;12.57;4.90;;;;;;;;;;4955623;29;20040;-74
2022/04/25 06:15:38;;;;;;;9.93;4.43;;;;;;;;;;4937945;29;20043;-75
2022/04/25 06:18:04;;;;;;;9.90;4.25;;;;;;;;;;4938332;29;20166;-77
2022/04/25 06:20:30;;;;;;;7.00;4.20;;;;;;;;;;4937839;29;20059;-74
2022/04/25 06:23:03;;;;;;;9.02;4.82;;;;;;;;;;4953932;29;20031;-74
2022/04/25 06:25:29;;;;;;;8.00;4.18;;;;;;;;;;4937866;29;20448;-77
2022/04/25 06:27:57;;;;;;;9.07;4.30;;;;;;;;;;4937247;29;20037;-76
2022/04/25 06:30:23;;;;;;;9.48;4.95;;;;;;;;;;4954888;29;20024;-74
2022/04/25 06:32:50;;;;;;;9.07;4.45;;;;;;;;;;4937969;29;20395;-75
2022/04/25 06:35:16;;;;;;;8.50;4.20;;;;;;;;;;4937115;29;20097;-74
2022/04/25 06:37:41;;;;;;;11.57;4.53;;;;;;;;;;4955164;29;20034;-75
2022/04/25 06:40:07;;;;;;;10.00;4.00;;;;;;;;;;4955673;29;20431;-75
2022/04/25 06:42:33;;;;;;;10.00;4.43;;;;;;;;;;4937580;29;20549;-74
2022/04/25 06:44:58;;;;;;;9.32;4.80;;;;;;;;;;4937723;29;20031;-75
2022/04/25 06:47:23;;;;;;;6.50;3.72;;;;;;;;;;4953252;29;20089;-76
2022/04/25 06:49:49;;;;;;;11.43;4.85;;;;;;;;;;4954280;29;20533;-76
2022/04/25 06:52:15;;;;;;;7.43;4.35;;;;;;;;;;4936464;29;20475;-76
2022/04/25 06:54:40;;;;;;;7.68;4.40;;;;;;;;;;4953425;29;20213;-76
2022/04/25 06:57:06;;;;;;;10.27;4.60;;;;;;;;;;4953929;29;20058;-77
2022/04/25 06:59:32;;;;;;;8.93;3.75;;;;;;;;;;4954777;29;20497;-76
2022/04/25 07:01:57;;;;;;;9.82;4.30;;;;;;;;;;4955164;29;20031;-76
2022/04/25 07:04:23;;;;;;;6.82;4.00;;;;;;;;;;4952439;28;20039;-76
2022/04/25 07:06:49;;;;;;;6.57;4.07;;;;;;;;;;4939519;28;20030;-78
2022/04/25 07:09:14;;;;;;;8.35;4.07;;;;;;;;;;4968685;28;20036;-77
2022/04/25 07:11:44;;;;;;;6.65;4.13;;;;;;;;;;4953016;29;20038;-78
2022/04/25 07:14:12;;;;;;;15.27;4.30;;;;;;;;;;4953032;29;20027;-78
2022/04/25 07:16:38;;;;;;;6.53;3.60;;;;;;;;;;4937427;28;20031;-77
2022/04/25 07:19:03;;;;;;;10.98;3.97;;;;;;;;;;4954202;29;20034;-78
2022/04/25 07:29:46;;;;;;;6.00;3.83;;;;;;;;;;4953000;29;20050;-77
2022/04/25 07:32:12;;;;;;;5.32;3.75;;;;;;;;;;4952759;29;20046;-76
2022/04/25 07:34:39;;;;;;;4.63;3.50;;;;;;;;;;4955695;28;20030;-76
2022/04/25 07:37:04;;;;;;;5.78;3.75;;;;;;;;;;4955813;28;20154;-76
2022/04/25 07:39:30;;;;;;;8.30;4.18;;;;;;;;;;4973276;28;20051;-76
2022/04/25 07:41:55;;;;;;;5.57;3.53;;;;;;;;;;4955942;28;20508;-76
2022/04/25 07:44:21;;;;;;;4.28;3.42;;;;;;;;;;4973038;28;20500;-75
2022/04/25 07:46:46;;;;;;;6.13;3.65;;;;;;;;;;4971302;28;20453;-77
2022/04/25 07:49:12;;;;;;;5.57;3.30;;;;;;;;;;4973016;28;20129;-77
2022/04/25 07:51:41;;;;;;;7.50;3.67;;;;;;;;;;4939488;28;20077;-77
2022/04/25 07:54:08;;;;;;;5.88;3.53;;;;;;;;;;4972731;28;20034;-76
2022/04/25 07:56:34;;;;;;;6.30;3.55;;;;;;;;;;4955835;28;20413;-77
2022/04/25 07:59:02;;;;;;;6.78;4.25;;;;;;;;;;4955566;28;20022;-77
2022/04/25 08:01:28;;;;;;;4.70;3.67;;;;;;;;;;4955917;28;20175;-76
2022/04/25 08:03:57;;;;;;;5.97;4.32;;;;;;;;;;4959167;28;20058;-78
2022/04/25 08:06:22;;;;;;;6.18;3.80;;;;;;;;;;4961813;28;20497;-77
2022/04/25 08:08:49;;;;;;;5.57;3.45;;;;;;;;;;4979077;28;20034;-77
2022/04/25 08:11:14;;;;;;;6.03;3.15;;;;;;;;;;4961837;28;20114;-77
2022/04/25 08:19:07;;;;;;;3.90;3.13;;;;;;;;;;4964362;28;20498;-78
2022/04/25 08:21:32;;;;;;;4.90;3.00;;;;;;;;;;4961834;28;20130;-78
2022/04/25 08:23:58;;;;;;;6.72;3.85;;;;;;;;;;4945612;28;20030;-77
2022/04/25 08:26:24;;;;;;;6.90;3.55;;;;;;;;;;4961814;28;20029;-77
2022/04/25 08:28:50;;;;;;;3.70;2.85;;;;;;;;;;4979056;28;20034;-78
2022/04/25 08:31:16;;;;;;;5.55;3.60;;;;;;;;;;4945988;28;20077;-78
2022/04/25 08:33:43;;;;;;;6.25;3.65;;;;;;;;;;4979466;28;20395;-77
2022/04/25 08:36:09;;;;;;;5.25;3.35;;;;;;;;;;4961721;28;20414;-77
2022/04/25 08:38:34;;;;;;;4.43;2.97;;;;;;;;;;4961405;28;20134;-78
2022/04/25 08:41:00;;;;;;;5.80;3.72;;;;;;;;;;4961648;28;20041;-77
2022/04/25 08:43:26;;;;;;;5.85;3.45;;;;;;;;;;4961336;28;20543;-78
2022/04/25 08:45:53;;;;;;;3.65;2.85;;;;;;;;;;4961708;28;20071;-77
2022/04/25 08:48:20;;;;;;;7.10;3.67;;;;;;;;;;4961200;28;20063;-78
2022/04/25 08:50:47;;;;;;;4.78;3.15;;;;;;;;;;4945624;28;20038;-76
2022/04/25 08:53:13;;;;;;;4.65;3.20;;;;;;;;;;4978942;28;20438;-76
2022/04/25 08:55:39;;;;;;;5.00;3.20;;;;;;;;;;4961962;28;20041;-77
2022/04/25 08:58:05;;;;;;;4.18;3.05;;;;;;;;;;4962271;28;20031;-77
2022/04/25 09:00:31;;;;;;;5.72;3.75;;;;;;;;;;4961642;28;20492;-78
2022/04/25 09:02:57;;;;;;;5.35;3.65;;;;;;;;;;4962002;28;20035;-77
2022/04/25 09:05:22;;;;;;;7.95;3.40;;;;;;;;;;4979108;28;20034;-77
2022/04/25 09:07:48;;;;;;;8.63;3.22;;;;;;;;;;4979146;28;20488;-76
2022/04/25 09:10:16;;;;;;;4.82;3.35;;;;;;;;;;4979134;28;20169;-76
2022/04/25 09:12:45;;;;;;;7.05;3.50;;;;;;;;;;4961630;28;20073;-76
2022/04/25 09:15:10;;;;;;;6.50;3.60;;;;;;;;;;4976702;28;20462;-77
2022/04/25 09:17:39;;;;;;;8.93;3.50;;;;;;;;;;4942327;28;20041;-76
2022/04/25 09:20:09;;;;;;;5.32;4.03;;;;;;;;;;4975855;28;20058;-76
2022/04/25 09:22:36;;;;;;;6.35;3.33;;;;;;;;;;4958590;28;20031;-76
2022/04/25 09:25:10;;;;;;;5.22;3.50;;;;;;;;;;4958539;28;20031;-77
2022/04/25 09:27:36;;;;;;;;;;;;;;;;;;4958604;28;20034;-75
2022/04/25 09:30:31;;;;;;;9.90;3.78;;;;;;;;;;4975652;28;19922;-75
2022/04/25 09:32:57;;;;;;;6.72;3.65;;;;;;;;;;4962734;28;20047;-76
2022/04/25 09:35:35;;;;;;;7.82;3.83;;;;;;;;;;4957679;28;20045;-75
2022/04/25 09:38:03;;;;;;;7.95;3.53;;;;;;;;;;4975360;28;20538;-75
2022/04/25 09:40:31;;;;;;;5.88;3.80;;;;;;;;;;4958191;28;20018;-76
2022/04/25 09:43:10;;;;;;;5.35;3.88;;;;;;;;;;4951130;29;20105;-77
2022/04/25 09:45:39;;;;;;;6.15;3.75;;;;;;;;;;4954601;29;20482;-76
2022/04/25 09:48:24;;;;;;;5.72;3.72;;;;;;;;;;4955883;29;20055;-76
2022/04/25 09:51:10;;;;;;;8.18;4.05;;;;;;;;;;4954248;29;20031;-75
2022/04/25 09:53:43;;;;;;;7.90;3.85;;;;;;;;;;4954416;29;20114;-75
2022/04/25 09:56:14;;;;;;;6.13;3.80;;;;;;;;;;4954539;29;20082;-76
2022/04/25 09:58:42;;;;;;;8.60;3.65;;;;;;;;;;4939103;29;20105;-75
2022/04/25 10:01:14;;;;;;;5.85;3.92;;;;;;;;;;4954372;29;20191;-77
2022/04/25 10:03:41;;;;;;;8.27;3.80;;;;;;;;;;4954440;29;20031;-76
2022/04/25 10:06:07;;;;;;;5.90;3.75;;;;;;;;;;4956141;29;20138;-76
2022/04/25 10:08:35;;;;;;;6.90;4.03;;;;;;;;;;4970354;28;20547;-76
2022/04/25 10:11:07;;;;;;;7.65;4.57;;;;;;;;;;4954501;28;20049;-76
2022/04/25 10:13:34;;;;;;;4.68;3.25;;;;;;;;;;4954340;29;20147;-77
2022/04/25 10:16:00;;;;;;;4.15;3.22;;;;;;;;;;4970245;28;20034;-76
2022/04/25 10:18:27;;;;;;;4.03;3.33;;;;;;;;;;4954187;29;20027;-76
2022/04/25 10:20:53;;;;;;;8.27;3.75;;;;;;;;;;4954438;28;20355;-76
2022/04/25 10:23:18;;;;;;;9.05;3.80;;;;;;;;;;4954144;29;20123;-76
2022/04/25 10:25:49;;;;;;;4.78;3.53;;;;;;;;;;4954202;28;20039;-76
2022/04/25 10:28:43;;;;;;;9.07;4.07;;;;;;;;;;4955467;29;20035;-77
2022/04/25 10:31:11;;;;;;;6.57;4.00;;;;;;;;;;4940274;29;20039;-77
2022/04/25 10:33:51;;;;;;;4.97;3.53;;;;;;;;;;4953641;29;20034;-76
2022/04/25 10:36:38;;;;;;;6.05;3.70;;;;;;;;;;4953753;28;20035;-76
2022/04/25 10:39:27;;;;;;;5.38;3.90;;;;;;;;;;4954940;29;20023;-76
2022/04/25 10:44:36;;;;;;;8.02;3.60;;;;;;;;;;4955174;29;20029;-76
2022/04/25 10:47:13;;;;;;;5.68;3.47;;;;;;;;;;4953204;29;20059;-77
2022/04/25 10:49:44;;;;;;;5.00;3.05;;;;;;;;;;4954952;29;20401;-77
2022/04/25 10:52:31;;;;;;;4.78;3.10;;;;;;;;;;4954866;29;20023;-76
2022/04/25 10:55:20;;;;;;;4.40;3.58;;;;;;;;;;4954395;29;20024;-76
2022/04/25 10:58:07;;;;;;;5.07;3.63;;;;;;;;;;4941934;29;20039;-76
2022/04/25 11:00:39;;;;;;;4.80;3.45;;;;;;;;;;4953110;29;20091;-76
2022/04/25 11:03:09;;;;;;;5.57;3.47;;;;;;;;;;4954624;29;20373;-77
2022/04/25 11:05:49;;;;;;;5.80;3.40;;;;;;;;;;4953002;29;20089;-77
2022/04/25 11:08:24;;;;;;;5.18;3.25;;;;;;;;;;4953150;28;20034;-76
2022/04/25 11:11:01;;;;;;;5.55;3.13;;;;;;;;;;4954375;29;20031;-77
2022/04/25 11:13:32;;;;;;;5.78;3.30;;;;;;;;;;4954069;29;20023;-77
2022/04/25 11:16:22;;;;;;;4.75;3.33;;;;;;;;;;4952727;29;20069;-77
2022/04/25 11:19:11;;;;;;;5.68;3.30;;;;;;;;;;4952973;29;20520;-77
2022/04/25 11:21:46;;;;;;;6.30;3.25;;;;;;;;;;4952952;28;20130;-76
2022/04/25 11:24:35;;;;;;;4.60;2.72;;;;;;;;;;4953101;28;20042;-76
2022/04/25 11:27:03;;;;;;;6.90;3.53;;;;;;;;;;4953438;28;20027;-77
2022/04/25 11:29:28;;;;;;;4.60;3.20;;;;;;;;;;4954271;29;20035;-77
2022/04/25 11:32:24;;;;;;;4.88;3.20;;;;;;;;;;4937101;29;20028;-76
2022/04/25 11:34:50;;;;;;;3.30;2.80;;;;;;;;;;4954393;29;20035;-77
2022/04/25 11:37:15;;;;;;;6.05;3.50;;;;;;;;;;4954348;28;20057;-77
2022/04/25 11:39:54;;;;;;;4.70;3.45;;;;;;;;;;4952671;29;20050;-77
2022/04/25 11:42:20;;;;;;;6.25;3.08;;;;;;;;;;4954254;29;20114;-76
2022/04/25 11:44:45;;;;;;;3.72;3.35;;;;;;;;;;4954315;29;20106;-76
2022/04/25 11:47:10;;;;;;;3.85;3.20;;;;;;;;;;4936987;29;20067;-76
2022/04/25 11:49:38;;;;;;;4.28;3.22;;;;;;;;;;4954226;29;20387;-76
2022/04/25 11:52:04;;;;;;;5.97;3.50;;;;;;;;;;4953203;29;20481;-76
2022/04/25 11:54:33;;;;;;;7.45;3.25;;;;;;;;;;4953098;29;20483;-76
2022/04/25 11:57:00;;;;;;;5.20;3.28;;;;;;;;;;4953040;28;20027;-76
2022/04/25 11:59:25;;;;;;;4.13;3.20;;;;;;;;;;4952875;28;20375;-77
2022/04/25 12:01:52;;;;;;;5.70;3.38;;;;;;;;;;4952757;29;20050;-77
2022/04/25 12:04:27;;;;;;;7.72;3.75;;;;;;;;;;4954372;29;20027;-76
2022/04/25 12:06:56;;;;;;;3.33;3.03;;;;;;;;;;4952982;29;20067;-76
2022/04/25 12:15:34;;;;;;;7.68;4.00;;;;;;;;;;4954565;29;20035;-76
2022/04/25 12:18:18;;;;;;;5.13;3.45;;;;;;;;;;4954275;28;20089;-77
2022/04/25 12:21:04;;;;;;;3.50;3.10;;;;;;;;;;4952779;28;20030;-77
2022/04/25 12:23:30;;;;;;;4.80;3.20;;;;;;;;;;4954499;29;20110;-78
2022/04/25 12:25:56;;;;;;;4.47;3.10;;;;;;;;;;4954226;29;20070;-77
2022/04/25 12:28:23;;;;;;;4.75;3.40;;;;;;;;;;4936895;29;20476;-77
2022/04/25 12:30:55;;;;;;;5.97;3.75;;;;;;;;;;4952822;29;20471;-77
2022/04/25 12:33:23;;;;;;;6.75;3.50;;;;;;;;;;4952602;29;20072;-77
2022/04/25 12:35:51;;;;;;;4.97;3.40;;;;;;;;;;4952539;28;20034;-77
2022/04/25 12:38:51;;;;;;;6.05;3.95;;;;;;;;;;4953879;29;20529;-77
2022/04/25 12:41:24;;;;;;;4.60;3.60;;;;;;;;;;4952683;29;20030;-77
2022/04/25 12:43:52;;;;;;;5.05;3.20;;;;;;;;;;4954201;29;20035;-77
2022/04/25 12:46:54;;;;;;;4.72;3.53;;;;;;;;;;4952754;29;20474;-77
2022/04/25 12:49:20;;;;;;;5.47;3.50;;;;;;;;;;4938435;28;20563;-77
2022/04/25 12:51:56;;;;;;;5.75;3.78;;;;;;;;;;4956857;29;20055;-78
2022/04/25 12:54:30;;;;;;;4.47;3.22;;;;;;;;;;4955899;29;20475;-77
2022/04/25 12:57:16;;;;;;;4.38;3.53;;;;;;;;;;4956040;29;20085;-77
2022/04/25 12:59:48;;;;;;;5.00;3.83;;;;;;;;;;4955940;29;20023;-77
2022/04/25 13:02:16;;;;;;;4.22;3.22;;;;;;;;;;4955856;29;20371;-77
2022/04/25 13:04:56;;;;;;;3.65;3.13;;;;;;;;;;4955698;29;20435;-77
2022/04/25 13:07:31;;;;;;;6.75;3.40;;;;;;;;;;4955945;29;20442;-78
2022/04/25 13:10:02;;;;;;;6.30;3.95;;;;;;;;;;4955655;29;20024;-77
2022/04/25 13:12:34;;;;;;;4.68;3.83;;;;;;;;;;4957047;29;20037;-77
2022/04/25 13:15:00;;;;;;;6.35;4.05;;;;;;;;;;4955957;29;20087;-78
2022/04/25 13:17:26;;;;;;;6.07;4.03;;;;;;;;;;4955466;29;20035;-77
2022/04/25 13:19:51;;;;;;;4.80;3.72;;;;;;;;;;4971510;28;20513;-77
2022/04/25 13:22:17;;;;;;;6.30;3.20;;;;;;;;;;4956778;28;20031;-77
2022/04/25 13:24:43;;;;;;;5.35;3.90;;;;;;;;;;4956760;29;20027;-77
2022/04/25 13:27:09;;;;;;;3.97;3.38;;;;;;;;;;4956779;29;20066;-77
2022/04/25 13:29:35;;;;;;;5.60;3.67;;;;;;;;;;4956527;29;20075;-77
2022/04/25 13:32:01;;;;;;;5.95;4.00;;;;;;;;;;4971351;28;20051;-77
2022/04/25 13:34:27;;;;;;;5.15;3.92;;;;;;;;;;4956773;29;20034;-76
2022/04/25 13:36:53;;;;;;;5.90;3.70;;;;;;;;;;4957397;29;20101;-76
2022/04/25 13:39:18;;;;;;;3.83;3.42;;;;;;;;;;4956823;29;20034;-76
2022/04/25 13:41:43;;;;;;;4.72;3.53;;;;;;;;;;4955343;29;20031;-77
2022/04/25 13:44:09;;;;;;;5.55;3.90;;;;;;;;;;4956587;29;20031;-78
2022/04/25 13:46:34;;;;;;;6.53;3.70;;;;;;;;;;4955460;29;20110;-76
2022/04/25 13:49:00;;;;;;;5.70;3.83;;;;;;;;;;4955265;29;20348;-77
2022/04/25 13:51:25;;;;;;;5.85;4.25;;;;;;;;;;4955875;29;20387;-77
2022/04/25 13:53:51;;;;;;;4.38;3.85;;;;;;;;;;4939312;29;20031;-77
2022/04/25 13:56:18;;;;;;;5.07;3.95;;;;;;;;;;4956480;29;20537;-76
2022/04/25 13:58:43;;;;;;;6.70;4.50;;;;;;;;;;4954842;29;20165;-76
2022/04/25 14:01:09;;;;;;;8.10;3.88;;;;;;;;;;4954406;28;20128;-77
2022/04/25 14:03:36;;;;;;;6.38;4.45;;;;;;;;;;4938895;29;20031;-77
2022/04/25 14:06:01;;;;;;;5.18;3.80;;;;;;;;;;4938723;29;20432;-77
2022/04/25 14:08:27;;;;;;;5.88;4.03;;;;;;;;;;4956113;29;20047;-77
2022/04/25 14:10:53;;;;;;;6.63;4.72;;;;;;;;;;4938536;29;20032;-77
2022/04/25 14:13:19;;;;;;;5.50;3.90;;;;;;;;;;4954443;29;20514;-77
2022/04/25 14:15:45;;;;;;;5.75;4.38;;;;;;;;;;4938380;29;20027;-77
2022/04/25 14:18:11;;;;;;;4.47;3.72;;;;;;;;;;4954461;29;20117;-77
2022/04/25 14:20:37;;;;;;;5.93;4.15;;;;;;;;;;4938391;29;20102;-77
2022/04/25 14:23:04;;;;;;;8.57;4.15;;;;;;;;;;4955658;29;20027;-77
2022/04/25 14:25:30;;;;;;;7.72;4.38;;;;;;;;;;4954697;29;20035;-77
2022/04/25 14:27:57;;;;;;;5.88;4.32;;;;;;;;;;4970122;28;20406;-77
2022/04/25 14:30:23;;;;;;;6.35;4.38;;;;;;;;;;4938298;29;20085;-77
2022/04/25 14:32:49;;;;;;;8.07;4.97;;;;;;;;;;4954159;29;20466;-77
2022/04/25 14:35:14;;;;;;;6.13;4.55;;;;;;;;;;4969932;28;20038;-78
2022/04/25 14:37:40;;;;;;;6.80;4.93;;;;;;;;;;4955433;29;20027;-77
2022/04/25 14:40:06;;;;;;;7.10;5.47;;;;;;;;;;4955395;29;20027;-77
2022/04/25 14:42:32;;;;;;;9.55;5.18;;;;;;;;;;4953851;29;20077;-77
2022/04/25 14:44:58;;;;;;;8.88;6.20;;;;;;;;;;4954210;29;20438;-76
2022/04/25 14:47:23;;;;;;;8.35;5.38;;;;;;;;;;4953717;29;20055;-76
2022/04/25 14:55:19;;;;;;;9.23;6.32;;;;;;;;;;4955052;29;20106;-76
2022/04/25 14:57:48;;;;;;;8.35;5.38;;;;;;;;;;4969697;28;20354;-76
2022/04/25 15:00:15;;;;;;;10.65;5.72;;;;;;;;;;4955171;29;20034;-76
2022/04/25 15:02:40;;;;;;;8.88;5.65;;;;;;;;;;4954928;29;20042;-76
2022/04/25 15:05:06;;;;;;;10.88;5.90;;;;;;;;;;4954933;29;20043;-76
2022/04/25 15:07:32;;;;;;;9.35;6.45;;;;;;;;;;4954823;29;20094;-76
2022/04/25 15:09:57;;;;;;;9.52;6.47;;;;;;;;;;4937478;29;20086;-76
2022/04/25 15:12:22;;;;;;;9.13;6.35;;;;;;;;;;4954265;28;20060;-76
2022/04/25 15:14:48;;;;;;;9.50;6.75;;;;;;;;;;4968823;28;20035;-76
2022/04/25 15:17:13;;;;;;;7.88;6.22;;;;;;;;;;4935488;29;20031;-75
2022/04/25 15:19:38;;;;;;;12.90;5.63;;;;;;;;;;4950258;28;20038;-76
2022/04/25 15:22:04;;;;;;;10.93;6.18;;;;;;;;;;4933291;29;20028;-75
2022/04/25 15:24:29;;;;;;;7.43;5.68;;;;;;;;;;4962514;28;20031;-76
2022/04/25 15:26:55;;;;;;;11.07;5.97;;;;;;;;;;4935217;29;20043;-76
2022/04/25 15:29:21;;;;;;;8.48;5.40;;;;;;;;;;4934055;29;20110;-76